Norwegian Pearl — C6VG7 — position and weather

sailwx.info

Track history (hours):
 
Tides and Currents Weather Stations Pressure Air Temp Water Temp Dewpoint Dewpoint Depression Visibility Wind Speed Wind Dir Waves Ship Positions

Norwegian Pearl

Last reported at 2016-Dec-08 04:00 UTC. Time now 2016-Dec-08 05:59 UTC.
Position N 24°06' W 080°48'.

Type: Ship. MMSI: 309653000.

Wind from 030 at 12 knots

Barometer 1017.9 mb
Air temperature 27.0 ° C
Visibility: greater than 5.4 NM
Water temperature 29.0 ° C

Date/timePositionNaut miles runAvg speedWind from/ knotsBaromVisibWave heightAir tempDewpointWater temp
2016-Dec-08 04:00N 24°06' W 080°48'2020.4 030 / 121017.9 5.4 27.0 29.0
2016-Dec-08 03:00N 23°54' W 081°06'2020.4 010 / 121017.9 5.4 27.0 29.0
2016-Dec-08 02:00N 23°42' W 081°24'4020.2 020 / 121017.9 5.4 27.0 29.0
2016-Dec-08 00:00N 23°30' W 082°06'2322.8 010 / 121017.9 5.4 27.0 29.0
2016-Dec-07 23:00N 23°24' W 082°30'3818.8 010 / 111016.9 5.4 28.0 29.0
2016-Dec-07 21:00N 23°06' W 083°06'2322.9 360 / 131015.610.8 26.8 29.0
2016-Dec-07 20:00N 23°00' W 083°30'1817.6 360 / 131015.310.8 26.8 29.0
2016-Dec-07 19:00N 22°54' W 083°48'26889.3 350 / 121015.610.8 27.1 29.0
2016-Dec-07 16:00N 25°36' W 079°54'354176.8 130 / 91018.010.8 26.0 30.0
2016-Dec-07 14:00N 22°00' W 085°00'5326.5 140 / 111016.9 0.5 27.4 20.3
2016-Dec-07 12:00N 21°12' W 084°36'2121.2 140 / 101015.9 5.4 28.0 29.0
2016-Dec-07 11:00N 20°54' W 084°24'2928.8 150 / 101015.0 5.4 26.4 29.0
2016-Dec-07 10:00N 20°36' W 084°00'1616.4 150 / 101015.0 5.4 26.4 28.0
2016-Dec-07 09:00N 20°24' W 083°48'2524.7 130 / 81014.7 5.4 26.4 28.0
2016-Dec-07 08:00N 20°06' W 083°30'2524.7 150 / 91014.7 5.4 26.8 28.0
2016-Dec-07 07:00N 19°48' W 083°12'2121.3 110 / 161015.2 5.4 26.8 29.0
2016-Dec-07 06:00N 19°30' W 083°00'2120.8 090 / 161015.4 5.4 27.1 29.0
2016-Dec-07 05:00N 19°18' W 082°42'2524.8 100 / 181014.9 5.4 28.0 29.0
2016-Dec-07 04:00N 19°00' W 082°24'2524.8 090 / 181014.9 5.4 28.0 29.0
2016-Dec-07 03:00N 18°42' W 082°06'2524.8 100 / 201014.9 5.4 28.0 29.0
2016-Dec-07 02:00N 18°24' W 081°48'2121.3 090 / 201014.9 5.4 28.0 29.0
2016-Dec-07 01:00N 18°06' W 081°36'2120.9 080 / 201014.9 5.4 28.0 29.0
2016-Dec-07 00:00N 17°54' W 081°18'2524.9 100 / 181014.0 5.4 28.0 29.0
2016-Dec-06 23:00N 17°36' W 081°00'2121.3 090 / 231013.4 5.4 28.0 29.0
2016-Dec-06 22:00N 17°18' W 080°48'2524.9 080 / 251013.010.8 27.7 29.0
2016-Dec-06 21:00N 17°00' W 080°30'2524.9 080 / 251012.610.8 27.7 29.0
2016-Dec-06 20:00N 16°42' W 080°12'2524.7 080 / 261012.1 5.4 27.4 29.0
2016-Dec-06 19:00N 16°18' W 080°06'2524.7 090 / 251012.5 5.4 27.8 29.0
2016-Dec-06 18:00N 15°54' W 080°12'2524.7 070 / 211013.2 5.4 26.5 29.0
2016-Dec-06 17:00N 15°30' W 080°18'1818.0 080 / 271013.7 5.4 28.0 29.0
2016-Dec-06 16:00N 15°12' W 080°18'2524.7 080 / 201013.7 5.4 28.0 29.0
2016-Dec-06 15:00N 14°48' W 080°24'4924.7 080 / 201013.7 5.4 28.0 29.0
2016-Dec-06 13:00N 14°00' W 080°36'1918.9 070 / 151013.7 5.4 28.0 29.0
2016-Dec-06 12:00N 13°42' W 080°42'2524.7 090 / 171012.8 5.4 28.0 29.0
2016-Dec-06 11:00N 13°18' W 080°48'4824.2 090 / 171012.1 5.4 27.0 29.0
2016-Dec-06 09:00N 12°30' W 080°54'1918.9 070 / 171011.1 5.4 27.0 29.0
2016-Dec-06 08:00N 12°12' W 081°00'2525.2 030 / 121011.1 5.4 26.8 29.0
2016-Dec-06 07:00N 11°54' W 081°18'4623.2 030 / 91011.4 5.4 26.7 29.0
2016-Dec-06 05:00N 11°18' W 081°48'2221.5 350 / 61012.1 5.4 28.0 29.0
2016-Dec-06 04:00N 11°00' W 082°00'2525.2 340 / 61012.1 5.4 28.0 29.0
2016-Dec-06 03:00N 10°42' W 082°18'1716.8 030 / 41012.1 5.4 28.0 29.0
2016-Dec-06 02:00N 10°30' W 082°30'2525.2 010 / 41012.1 5.4 28.0 29.0
2016-Dec-06 01:00N 10°12' W 082°48'2210.8 010 / 21012.1 5.4 28.0 29.0
2016-Dec-05 23:00N 09°54' W 083°00'0 0.0 070 / 21010.2 5.4 27.1 22.2
2016-Dec-05 21:00N 09°54' W 083°00'0 0.0 030 / 71009.8 5.4 28.4 22.2
2016-Dec-05 20:00N 09°54' W 083°00'0 0.0 010 / 101010.010.8 28.0 28.0
2016-Dec-05 18:00N 09°54' W 083°00'0 0.0 020 / 111012.9 5.4
2016-Dec-05 16:00N 09°54' W 083°00'0 0.0 360 / 91013.310.8 25.0 29.0
2016-Dec-05 15:00N 09°54' W 083°00'12 3.9 360 / 91013.310.8 25.0 29.0
2016-Dec-05 12:00N 09°54' W 082°48'1817.7 240 / 91012.2 2.2 25.0 29.0
2016-Dec-05 11:00N 09°54' W 082°30'1817.7 230 / 91011.2 2.2 26.0 29.0
2016-Dec-05 10:00N 09°54' W 082°12'1313.3 340 / 61011.2 5.4 26.0 29.0
2016-Dec-05 09:00N 09°48' W 082°00'1817.7 360 / 61010.5 5.4 26.2 29.0
2016-Dec-05 08:00N 09°48' W 081°42'3015.1 300 / 21010.8 5.4 26.4 29.0
2016-Dec-05 06:00N 09°42' W 081°12'1817.7 240 / 11011.6 5.4 26.5 29.0
2016-Dec-05 05:00N 09°42' W 080°54'1817.7 350 / 21009.5 5.4 26.4 29.0
2016-Dec-05 04:00N 09°42' W 080°36'1918.7 360 / 71009.5 5.4 26.4 29.0
2016-Dec-05 03:00N 09°36' W 080°18'1817.7 010 / 71009.5 5.4 26.4 29.0
2016-Dec-05 02:00N 09°36' W 080°00'30 1.7 330 / 81009.5 5.4 26.4 29.0
2016-Dec-04 08:00N 09°42' W 079°30'1918.7 200 / 81009.5 5.4 26.4 29.0
2016-Dec-04 07:00N 09°48' W 079°12'1918.7 200 / 21010.2 5.4 26.8 29.0
2016-Dec-04 06:00N 09°54' W 078°54'1817.7 210 / 41011.4 5.4 28.0 29.0
2016-Dec-04 05:00N 09°54' W 078°36'4220.9 230 / 21011.3 5.4 28.0 29.0
2016-Dec-04 03:00N 10°00' W 077°54'2423.6 310 / 51010.0 5.4 28.0 29.0
2016-Dec-04 02:00N 10°00' W 077°30'1918.7 320 / 101010.0 5.4 28.0 29.0
2016-Dec-04 01:00N 10°06' W 077°12'2423.6 310 / 101010.0 5.4 28.0 29.0
2016-Dec-04 00:00N 10°06' W 076°48'1817.7 290 / 101010.0 5.4 28.0 29.0
2016-Dec-03 23:00N 10°06' W 076°30'1918.7 300 / 61009.0 5.4 28.0 30.0
2016-Dec-03 22:00N 10°12' W 076°12'1817.7 290 / 81008.7 5.4 28.0 30.0
2016-Dec-03 21:00N 10°12' W 075°54'26 3.8 240 / 81008.7 5.4 28.0 30.0
2016-Dec-03 14:00N 10°24' W 075°30'13 3.3 160 / 151008.7 5.4 26.8 30.0
2016-Dec-03 10:00N 10°18' W 075°42'1313.4 160 / 91008.7 5.4 26.8 30.0
2016-Dec-03 09:00N 10°30' W 075°36'1313.4 090 / 121008.7 5.4 26.8 30.0
2016-Dec-03 08:00N 10°42' W 075°30'1313.4 110 / 51008.7 5.4 26.8 30.0
2016-Dec-03 07:00N 10°54' W 075°24'1716.8 170 / 61009.3 5.4 26.8 30.0
2016-Dec-03 06:00N 11°06' W 075°12'1313.2 030 / 41009.8 5.4 28.6 30.0
2016-Dec-03 05:00N 11°12' W 075°00'1313.2 040 / 81010.8 5.4 28.6 30.0
2016-Dec-03 04:00N 11°18' W 074°48'3635.8 040 / 131011.0 5.4 28.6 30.0
2016-Dec-03 03:00N 11°24' W 074°12'1313.2 040 / 131011.0 5.4 28.6 30.0
2016-Dec-03 02:00N 11°30' W 074°24'3215.9 020 / 71010.8 5.4 28.6 30.0
2016-Dec-03 00:00N 11°42' W 073°54'1313.2 010 / 71008.2 5.4 28.6 30.0
2016-Dec-02 23:00N 11°48' W 073°42'1313.2 020 / 71008.2 5.4 28.6 30.0
2016-Dec-02 22:00N 11°54' W 073°30'1918.6 030 / 71008.2 5.4 28.6 30.0
2016-Dec-02 21:00N 12°00' W 073°12'1313.2 030 / 91008.2 5.4 28.6 30.0
2016-Dec-02 20:00N 12°06' W 073°00'1313.2 020 / 131008.2 5.4 28.6 30.0
2016-Dec-02 19:00N 12°12' W 072°48'1313.2 360 / 91009.0 5.4 28.6 30.0
2016-Dec-02 18:00N 12°18' W 072°36'3015.0 270 / 21010.0 5.4 29.1 30.0
2016-Dec-02 16:00N 12°24' W 072°06'1313.2 090 / 201011.8 2.2 29.0 30.0
2016-Dec-02 15:00N 12°30' W 071°54'1313.2 090 / 231011.8 2.2 29.0 30.0
2016-Dec-02 14:00N 12°36' W 071°42'3014.9 100 / 191012.7 2.2 29.0 29.0
2016-Dec-02 12:00N 12°42' W 071°12'1211.7 090 / 171009.7 2.2 28.3 30.0
2016-Dec-02 11:00N 12°42' W 071°00'3014.9 100 / 231009.7 2.2 28.3 30.0
2016-Dec-02 09:00N 12°48' W 070°30'1817.6 100 / 191009.7 2.2 28.3 30.0
2016-Dec-02 08:00N 12°48' W 070°12'1211.7 100 / 191009.7 2.2 28.3 30.0
2016-Dec-02 07:00N 12°48' W 070°00'1817.6 100 / 211009.9 2.2 28.3 30.0
2016-Dec-02 06:00N 12°48' W 069°42'1313.2 100 / 251011.5 2.2 29.0 30.0
2016-Dec-02 05:00N 12°42' W 069°30'1313.2 100 / 161011.1 2.2 28.7 30.0
2016-Dec-02 04:00N 12°36' W 069°18'1211.7 120 / 101011.1 2.2 28.0 30.0
2016-Dec-02 03:00N 12°36' W 069°06'1918.6 060 / 191011.1 2.2 28.0 30.0
2016-Dec-02 02:00N 12°30' W 068°48'1716.8 100 / 291011.1 2.2 28.0 30.0
2016-Dec-02 01:00N 12°18' W 068°36'1313.2 100 / 241010.6 2.2 28.0 30.0
2016-Dec-02 00:00N 12°12' W 068°24'13 6.6 090 / 211009.9 2.2 28.0 30.0
2016-Dec-01 22:00N 12°06' W 068°12'0 0.0 090 / 91008.8 1.1 28.2 24.0
2016-Dec-01 18:00N 12°06' W 068°12'0 0.0 070 / 151010.027.0 28.0 29.0
2016-Dec-01 17:00N 12°06' W 068°12'0 0.0 090 / 121011.027.0 29.0 29.0
2016-Dec-01 14:00N 12°06' W 068°12'0 0.0 100 / 161012.0 5.4 27.4 28.0
2016-Dec-01 13:00N 12°06' W 068°12'13 4.4 070 / 111011.5 5.4 27.4 30.0
2016-Dec-01 10:00N 12°12' W 068°24'3014.8 070 / 141009.5 5.4 27.4 30.0
2016-Dec-01 08:00N 12°30' W 068°48'1716.8 080 / 141009.5 5.4 27.4 30.0
2016-Dec-01 07:00N 12°42' W 069°00'6716.8 060 / 161009.5 5.4 27.4 30.0
2016-Dec-01 03:00N 13°30' W 069°48'1716.7 070 / 251011.4 5.4 28.0 30.0
2016-Dec-01 02:00N 13°42' W 070°00'2121.2 060 / 251011.4 5.4 28.0 30.0
2016-Dec-01 01:00N 13°54' W 070°18'2121.4 060 / 271010.8 5.4 28.0 29.0
2016-Dec-01 00:00N 14°12' W 070°30'1716.7 060 / 261010.5 5.4 27.7 29.0
2016-Nov-30 23:00N 14°24' W 070°42'2121.2 060 / 261009.3 5.4 27.7 29.0
2016-Nov-30 22:00N 14°36' W 071°00'1716.7 050 / 331009.3 5.4 27.7 29.0
2016-Nov-30 21:00N 14°48' W 071°12'2121.4 050 / 251009.3 5.4 27.7 29.0
2016-Nov-30 20:00N 15°06' W 071°24'1716.7 060 / 221009.3 5.4 27.7 29.0
2016-Nov-30 19:00N 15°18' W 071°36'2121.1 060 / 201009.3 5.4 27.7 29.0
2016-Nov-30 18:00N 15°30' W 071°54'5819.4 070 / 171010.1 5.4 27.3 29.0
2016-Nov-30 15:00N 16°12' W 072°36'1716.6 070 / 211012.3 5.4 28.0 29.0
2016-Nov-30 14:00N 16°24' W 072°48'4220.8 030 / 321012.3 5.4 27.0 29.0
2016-Nov-30 12:00N 16°54' W 073°18'1716.6 040 / 61011.9 5.4 26.5 29.0
2016-Nov-30 11:00N 17°06' W 073°30'2121.0 040 / 21011.7 26.5 29.0
2016-Nov-30 10:00N 17°18' W 073°48'2121.3 140 / 21011.7 26.5 29.0
2016-Nov-30 09:00N 17°36' W 074°00'2120.9 030 / 191011.7 26.5 29.0
2016-Nov-30 08:00N 17°48' W 074°18'2121.3 180 1011.7 26.5 29.0
2016-Nov-30 07:00N 18°06' W 074°30'1716.6 230 1011.3 26.5 29.0
2016-Nov-30 06:00N 18°18' W 074°42'1818.0 050 / 231011.8 26.5 29.0
2016-Nov-30 05:00N 18°36' W 074°42'1918.9 050 / 291011.9 26.5 29.0
2016-Nov-30 04:00N 18°54' W 074°36'2121.3 040 / 271012.7 2.2 26.0 29.0
2016-Nov-30 03:00N 19°12' W 074°24'2726.5 040 / 291013.5 2.2 26.0 29.0
2016-Nov-30 02:00N 19°36' W 074°12'1313.3 040 / 291013.5 5.4 26.0 29.0
2016-Nov-30 01:00N 19°48' W 074°06'2524.7 050 / 241013.5 5.4 25.3 28.0
2016-Nov-30 00:00N 20°12' W 074°00'1616.5 050 / 291012.8 5.4 25.3 27.0
2016-Nov-29 23:00N 20°24' W 074°12'2120.7 060 / 221012.8 5.4 25.3 27.0
2016-Nov-29 22:00N 20°36' W 074°30'1817.9 060 / 221012.8 5.4 25.3 27.0
2016-Nov-29 21:00N 20°42' W 074°48'2120.7 060 / 171012.8 5.4 25.3 27.0
2016-Nov-29 20:00N 20°54' W 075°06'1817.8 070 / 221012.8 5.4 25.3 27.0
2016-Nov-29 19:00N 21°00' W 075°24'2120.6 070 / 221012.910.8 25.7 27.0
2016-Nov-29 18:00N 21°12' W 075°42'1817.8 080 / 211013.310.8 25.8 27.0
2016-Nov-29 17:00N 21°18' W 076°00'2120.6 080 / 241014.310.8 25.8 27.0
2016-Nov-29 16:00N 21°30' W 076°18'4120.4 070 / 191014.910.8 25.8 27.0
2016-Nov-29 14:00N 21°42' W 077°00'4120.5 070 / 231015.0 25.8 27.0
2016-Nov-29 12:00N 22°12' W 077°30'2120.5 050 / 211014.1 23.8 27.0
2016-Nov-29 11:00N 22°24' W 077°48'1817.7 050 / 261014.1 23.8 27.0
2016-Nov-29 10:00N 22°30' W 078°06'2020.5 060 / 231014.1 23.8 27.0
2016-Nov-29 09:00N 22°42' W 078°24'3718.3 060 / 181014.1 23.8 27.0
2016-Nov-29 07:00N 23°06' W 078°54'2121.1 070 / 291014.1 23.8 27.0
2016-Nov-29 06:00N 23°24' W 079°06'1918.8 050 / 261014.6 24.0 27.0
2016-Nov-29 05:00N 23°42' W 079°12'9619.2 100 / 191015.1 24.0 28.0
2016-Nov-29 00:00N 25°12' W 079°48'1328.9 090 / 32
2016-Nov-28 23:33N 25°24' W 079°52'611.0
2016-Nov-28 23:00N 25°30' W 079°54'1023.9 070 / 35
2016-Nov-28 22:33N 25°40' W 079°57'1212.0
2016-Nov-28 21:33N 25°46' W 080°09'1 1.1
2016-Nov-28 20:32N 25°46' W 080°10'0 0.0
2016-Nov-28 19:32N 25°46' W 080°10'0 0.0
2016-Nov-28 18:32N 25°46' W 080°10'0 0.0
2016-Nov-28 17:32N 25°46' W 080°10'0 0.0
2016-Nov-28 16:32N 25°46' W 080°10'0 0.0
2016-Nov-28 15:32N 25°46' W 080°10'610.2
2016-Nov-28 15:00N 25°42' W 080°06'612.2 080 / 201017.410.8 22.7 28.0
2016-Nov-28 14:32N 25°46' W 080°10'610.2
2016-Nov-28 14:00N 25°42' W 080°06'612.2 080 / 161016.910.8 22.7 28.0
2016-Nov-28 13:32N 25°46' W 080°10'0 0.0
2016-Nov-28 12:32N 25°46' W 080°10'0 0.0
2016-Nov-28 11:33N 25°46' W 080°10'1 1.3
2016-Nov-28 10:33N 25°46' W 080°08'1111.0
2016-Nov-28 09:34N 25°43' W 079°57'1323.5
2016-Nov-28 09:00N 25°30' W 079°54'716.4 080 / 251015.110.8 22.7 28.0
2016-Nov-28 08:33N 25°23' W 079°55'1222.0
2016-Nov-28 08:00N 25°12' W 079°48'1918.8 090 / 291015.110.8 22.7 28.0
2016-Nov-28 07:00N 24°54' W 079°54'2121.0 080 / 221015.010.8 23.4 28.0
2016-Nov-28 06:00N 24°36' W 080°06'1616.2 100 / 301015.210.8 23.8 28.0
2016-Nov-28 05:00N 24°24' W 080°18'   070 / 231015.910.8 24.5 28.0
Track history (hours):
 
Tides and Currents Weather Stations Pressure Air Temp Water Temp Dewpoint Dewpoint Depression Visibility Wind Speed Wind Dir Waves Ship Positions

Norwegian Pearl

Last reported at 2016-Dec-08 04:00 UTC. Time now 2016-Dec-08 05:59 UTC.
Position N 24°06' W 080°48'.

Type: Ship. MMSI: 309653000.

Wind from 030 at 12 knots

Barometer 1017.9 mb
Air temperature 27.0 ° C
Visibility: greater than 5.4 NM
Water temperature 29.0 ° C

Date/timePositionNaut miles runAvg speedWind from/ knotsBaromVisibWave heightAir tempDewpointWater temp
2016-Dec-08 04:00N 24°06' W 080°48'2020.4 030 / 121017.9 5.4 27.0 29.0
2016-Dec-08 03:00N 23°54' W 081°06'2020.4 010 / 121017.9 5.4 27.0 29.0
2016-Dec-08 02:00N 23°42' W 081°24'4020.2 020 / 121017.9 5.4 27.0 29.0
2016-Dec-08 00:00N 23°30' W 082°06'2322.8 010 / 121017.9 5.4 27.0 29.0
2016-Dec-07 23:00N 23°24' W 082°30'3818.8 010 / 111016.9 5.4 28.0 29.0
2016-Dec-07 21:00N 23°06' W 083°06'2322.9 360 / 131015.610.8 26.8 29.0
2016-Dec-07 20:00N 23°00' W 083°30'1817.6 360 / 131015.310.8 26.8 29.0
2016-Dec-07 19:00N 22°54' W 083°48'26889.3 350 / 121015.610.8 27.1 29.0
2016-Dec-07 16:00N 25°36' W 079°54'354176.8 130 / 91018.010.8 26.0 30.0
2016-Dec-07 14:00N 22°00' W 085°00'5326.5 140 / 111016.9 0.5 27.4 20.3
2016-Dec-07 12:00N 21°12' W 084°36'2121.2 140 / 101015.9 5.4 28.0 29.0
2016-Dec-07 11:00N 20°54' W 084°24'2928.8 150 / 101015.0 5.4 26.4 29.0
2016-Dec-07 10:00N 20°36' W 084°00'1616.4 150 / 101015.0 5.4 26.4 28.0
2016-Dec-07 09:00N 20°24' W 083°48'2524.7 130 / 81014.7 5.4 26.4 28.0
2016-Dec-07 08:00N 20°06' W 083°30'2524.7 150 / 91014.7 5.4 26.8 28.0
2016-Dec-07 07:00N 19°48' W 083°12'2121.3 110 / 161015.2 5.4 26.8 29.0
2016-Dec-07 06:00N 19°30' W 083°00'2120.8 090 / 161015.4 5.4 27.1 29.0
2016-Dec-07 05:00N 19°18' W 082°42'2524.8 100 / 181014.9 5.4 28.0 29.0
2016-Dec-07 04:00N 19°00' W 082°24'2524.8 090 / 181014.9 5.4 28.0 29.0
2016-Dec-07 03:00N 18°42' W 082°06'2524.8 100 / 201014.9 5.4 28.0 29.0
2016-Dec-07 02:00N 18°24' W 081°48'2121.3 090 / 201014.9 5.4 28.0 29.0
2016-Dec-07 01:00N 18°06' W 081°36'2120.9 080 / 201014.9 5.4 28.0 29.0
2016-Dec-07 00:00N 17°54' W 081°18'2524.9 100 / 181014.0 5.4 28.0 29.0
2016-Dec-06 23:00N 17°36' W 081°00'2121.3 090 / 231013.4 5.4 28.0 29.0
2016-Dec-06 22:00N 17°18' W 080°48'2524.9 080 / 251013.010.8 27.7 29.0
2016-Dec-06 21:00N 17°00' W 080°30'2524.9 080 / 251012.610.8 27.7 29.0
2016-Dec-06 20:00N 16°42' W 080°12'2524.7 080 / 261012.1 5.4 27.4 29.0
2016-Dec-06 19:00N 16°18' W 080°06'2524.7 090 / 251012.5 5.4 27.8 29.0
2016-Dec-06 18:00N 15°54' W 080°12'2524.7 070 / 211013.2 5.4 26.5 29.0
2016-Dec-06 17:00N 15°30' W 080°18'1818.0 080 / 271013.7 5.4 28.0 29.0
2016-Dec-06 16:00N 15°12' W 080°18'2524.7 080 / 201013.7 5.4 28.0 29.0
2016-Dec-06 15:00N 14°48' W 080°24'4924.7 080 / 201013.7 5.4 28.0 29.0
2016-Dec-06 13:00N 14°00' W 080°36'1918.9 070 / 151013.7 5.4 28.0 29.0
2016-Dec-06 12:00N 13°42' W 080°42'2524.7 090 / 171012.8 5.4 28.0 29.0
2016-Dec-06 11:00N 13°18' W 080°48'4824.2 090 / 171012.1 5.4 27.0 29.0
2016-Dec-06 09:00N 12°30' W 080°54'1918.9 070 / 171011.1 5.4 27.0 29.0
2016-Dec-06 08:00N 12°12' W 081°00'2525.2 030 / 121011.1 5.4 26.8 29.0
2016-Dec-06 07:00N 11°54' W 081°18'4623.2 030 / 91011.4 5.4 26.7 29.0
2016-Dec-06 05:00N 11°18' W 081°48'2221.5 350 / 61012.1 5.4 28.0 29.0
2016-Dec-06 04:00N 11°00' W 082°00'2525.2 340 / 61012.1 5.4 28.0 29.0
2016-Dec-06 03:00N 10°42' W 082°18'1716.8 030 / 41012.1 5.4 28.0 29.0
2016-Dec-06 02:00N 10°30' W 082°30'2525.2 010 / 41012.1 5.4 28.0 29.0
2016-Dec-06 01:00N 10°12' W 082°48'2210.8 010 / 21012.1 5.4 28.0 29.0
2016-Dec-05 23:00N 09°54' W 083°00'0 0.0 070 / 21010.2 5.4 27.1 22.2
2016-Dec-05 21:00N 09°54' W 083°00'0 0.0 030 / 71009.8 5.4 28.4 22.2
2016-Dec-05 20:00N 09°54' W 083°00'0 0.0 010 / 101010.010.8 28.0 28.0
2016-Dec-05 18:00N 09°54' W 083°00'0 0.0 020 / 111012.9 5.4
2016-Dec-05 16:00N 09°54' W 083°00'0 0.0 360 / 91013.310.8 25.0 29.0
2016-Dec-05 15:00N 09°54' W 083°00'12 3.9 360 / 91013.310.8 25.0 29.0
2016-Dec-05 12:00N 09°54' W 082°48'1817.7 240 / 91012.2 2.2 25.0 29.0
2016-Dec-05 11:00N 09°54' W 082°30'1817.7 230 / 91011.2 2.2 26.0 29.0
2016-Dec-05 10:00N 09°54' W 082°12'1313.3 340 / 61011.2 5.4 26.0 29.0
2016-Dec-05 09:00N 09°48' W 082°00'1817.7 360 / 61010.5 5.4 26.2 29.0
2016-Dec-05 08:00N 09°48' W 081°42'3015.1 300 / 21010.8 5.4 26.4 29.0
2016-Dec-05 06:00N 09°42' W 081°12'1817.7 240 / 11011.6 5.4 26.5 29.0
2016-Dec-05 05:00N 09°42' W 080°54'1817.7 350 / 21009.5 5.4 26.4 29.0
2016-Dec-05 04:00N 09°42' W 080°36'1918.7 360 / 71009.5 5.4 26.4 29.0
2016-Dec-05 03:00N 09°36' W 080°18'1817.7 010 / 71009.5 5.4 26.4 29.0
2016-Dec-05 02:00N 09°36' W 080°00'30 1.7 330 / 81009.5 5.4 26.4 29.0
2016-Dec-04 08:00N 09°42' W 079°30'1918.7 200 / 81009.5 5.4 26.4 29.0
2016-Dec-04 07:00N 09°48' W 079°12'1918.7 200 / 21010.2 5.4 26.8 29.0
2016-Dec-04 06:00N 09°54' W 078°54'1817.7 210 / 41011.4 5.4 28.0 29.0
2016-Dec-04 05:00N 09°54' W 078°36'4220.9 230 / 21011.3 5.4 28.0 29.0
2016-Dec-04 03:00N 10°00' W 077°54'2423.6 310 / 51010.0 5.4 28.0 29.0
2016-Dec-04 02:00N 10°00' W 077°30'1918.7 320 / 101010.0 5.4 28.0 29.0
2016-Dec-04 01:00N 10°06' W 077°12'2423.6 310 / 101010.0 5.4 28.0 29.0
2016-Dec-04 00:00N 10°06' W 076°48'1817.7 290 / 101010.0 5.4 28.0 29.0
2016-Dec-03 23:00N 10°06' W 076°30'1918.7 300 / 61009.0 5.4 28.0 30.0
2016-Dec-03 22:00N 10°12' W 076°12'1817.7 290 / 81008.7 5.4 28.0 30.0
2016-Dec-03 21:00N 10°12' W 075°54'26 3.8 240 / 81008.7 5.4 28.0 30.0
2016-Dec-03 14:00N 10°24' W 075°30'13 3.3 160 / 151008.7 5.4 26.8 30.0
2016-Dec-03 10:00N 10°18' W 075°42'1313.4 160 / 91008.7 5.4 26.8 30.0
2016-Dec-03 09:00N 10°30' W 075°36'1313.4 090 / 121008.7 5.4 26.8 30.0
2016-Dec-03 08:00N 10°42' W 075°30'1313.4 110 / 51008.7 5.4 26.8 30.0
2016-Dec-03 07:00N 10°54' W 075°24'1716.8 170 / 61009.3 5.4 26.8 30.0
2016-Dec-03 06:00N 11°06' W 075°12'1313.2 030 / 41009.8 5.4 28.6 30.0
2016-Dec-03 05:00N 11°12' W 075°00'1313.2 040 / 81010.8 5.4 28.6 30.0
2016-Dec-03 04:00N 11°18' W 074°48'3635.8 040 / 131011.0 5.4 28.6 30.0
2016-Dec-03 03:00N 11°24' W 074°12'1313.2 040 / 131011.0 5.4 28.6 30.0
2016-Dec-03 02:00N 11°30' W 074°24'3215.9 020 / 71010.8 5.4 28.6 30.0
2016-Dec-03 00:00N 11°42' W 073°54'1313.2 010 / 71008.2 5.4 28.6 30.0
2016-Dec-02 23:00N 11°48' W 073°42'1313.2 020 / 71008.2 5.4 28.6 30.0
2016-Dec-02 22:00N 11°54' W 073°30'1918.6 030 / 71008.2 5.4 28.6 30.0
2016-Dec-02 21:00N 12°00' W 073°12'1313.2 030 / 91008.2 5.4 28.6 30.0
2016-Dec-02 20:00N 12°06' W 073°00'1313.2 020 / 131008.2 5.4 28.6 30.0
2016-Dec-02 19:00N 12°12' W 072°48'1313.2 360 / 91009.0 5.4 28.6 30.0
2016-Dec-02 18:00N 12°18' W 072°36'3015.0 270 / 21010.0 5.4 29.1 30.0
2016-Dec-02 16:00N 12°24' W 072°06'1313.2 090 / 201011.8 2.2 29.0 30.0
2016-Dec-02 15:00N 12°30' W 071°54'1313.2 090 / 231011.8 2.2 29.0 30.0
2016-Dec-02 14:00N 12°36' W 071°42'3014.9 100 / 191012.7 2.2 29.0 29.0
2016-Dec-02 12:00N 12°42' W 071°12'1211.7 090 / 171009.7 2.2 28.3 30.0
2016-Dec-02 11:00N 12°42' W 071°00'3014.9 100 / 231009.7 2.2 28.3 30.0
2016-Dec-02 09:00N 12°48' W 070°30'1817.6 100 / 191009.7 2.2 28.3 30.0
2016-Dec-02 08:00N 12°48' W 070°12'1211.7 100 / 191009.7 2.2 28.3 30.0
2016-Dec-02 07:00N 12°48' W 070°00'1817.6 100 / 211009.9 2.2 28.3 30.0
2016-Dec-02 06:00N 12°48' W 069°42'1313.2 100 / 251011.5 2.2 29.0 30.0
2016-Dec-02 05:00N 12°42' W 069°30'1313.2 100 / 161011.1 2.2 28.7 30.0
2016-Dec-02 04:00N 12°36' W 069°18'1211.7 120 / 101011.1 2.2 28.0 30.0
2016-Dec-02 03:00N 12°36' W 069°06'1918.6 060 / 191011.1 2.2 28.0 30.0
2016-Dec-02 02:00N 12°30' W 068°48'1716.8 100 / 291011.1 2.2 28.0 30.0
2016-Dec-02 01:00N 12°18' W 068°36'1313.2 100 / 241010.6 2.2 28.0 30.0
2016-Dec-02 00:00N 12°12' W 068°24'13 6.6 090 / 211009.9 2.2 28.0 30.0
2016-Dec-01 22:00N 12°06' W 068°12'0 0.0 090 / 91008.8 1.1 28.2 24.0
2016-Dec-01 18:00N 12°06' W 068°12'0 0.0 070 / 151010.027.0 28.0 29.0
2016-Dec-01 17:00N 12°06' W 068°12'0 0.0 090 / 121011.027.0 29.0 29.0
2016-Dec-01 14:00N 12°06' W 068°12'0 0.0 100 / 161012.0 5.4 27.4 28.0
2016-Dec-01 13:00N 12°06' W 068°12'13 4.4 070 / 111011.5 5.4 27.4 30.0
2016-Dec-01 10:00N 12°12' W 068°24'3014.8 070 / 141009.5 5.4 27.4 30.0
2016-Dec-01 08:00N 12°30' W 068°48'1716.8 080 / 141009.5 5.4 27.4 30.0
2016-Dec-01 07:00N 12°42' W 069°00'6716.8 060 / 161009.5 5.4 27.4 30.0
2016-Dec-01 03:00N 13°30' W 069°48'1716.7 070 / 251011.4 5.4 28.0 30.0
2016-Dec-01 02:00N 13°42' W 070°00'2121.2 060 / 251011.4 5.4 28.0 30.0
2016-Dec-01 01:00N 13°54' W 070°18'2121.4 060 / 271010.8 5.4 28.0 29.0
2016-Dec-01 00:00N 14°12' W 070°30'1716.7 060 / 261010.5 5.4 27.7 29.0
2016-Nov-30 23:00N 14°24' W 070°42'2121.2 060 / 261009.3 5.4 27.7 29.0
2016-Nov-30 22:00N 14°36' W 071°00'1716.7 050 / 331009.3 5.4 27.7 29.0
2016-Nov-30 21:00N 14°48' W 071°12'2121.4 050 / 251009.3 5.4 27.7 29.0
2016-Nov-30 20:00N 15°06' W 071°24'1716.7 060 / 221009.3 5.4 27.7 29.0
2016-Nov-30 19:00N 15°18' W 071°36'2121.1 060 / 201009.3 5.4 27.7 29.0
2016-Nov-30 18:00N 15°30' W 071°54'5819.4 070 / 171010.1 5.4 27.3 29.0
2016-Nov-30 15:00N 16°12' W 072°36'1716.6 070 / 211012.3 5.4 28.0 29.0
2016-Nov-30 14:00N 16°24' W 072°48'4220.8 030 / 321012.3 5.4 27.0 29.0
2016-Nov-30 12:00N 16°54' W 073°18'1716.6 040 / 61011.9 5.4 26.5 29.0
2016-Nov-30 11:00N 17°06' W 073°30'2121.0 040 / 21011.7 26.5 29.0
2016-Nov-30 10:00N 17°18' W 073°48'2121.3 140 / 21011.7 26.5 29.0
2016-Nov-30 09:00N 17°36' W 074°00'2120.9 030 / 191011.7 26.5 29.0
2016-Nov-30 08:00N 17°48' W 074°18'2121.3 180 1011.7 26.5 29.0
2016-Nov-30 07:00N 18°06' W 074°30'1716.6 230 1011.3 26.5 29.0
2016-Nov-30 06:00N 18°18' W 074°42'1818.0 050 / 231011.8 26.5 29.0
2016-Nov-30 05:00N 18°36' W 074°42'1918.9 050 / 291011.9 26.5 29.0
2016-Nov-30 04:00N 18°54' W 074°36'2121.3 040 / 271012.7 2.2 26.0 29.0
2016-Nov-30 03:00N 19°12' W 074°24'2726.5 040 / 291013.5 2.2 26.0 29.0
2016-Nov-30 02:00N 19°36' W 074°12'1313.3 040 / 291013.5 5.4 26.0 29.0
2016-Nov-30 01:00N 19°48' W 074°06'2524.7 050 / 241013.5 5.4 25.3 28.0
2016-Nov-30 00:00N 20°12' W 074°00'1616.5 050 / 291012.8 5.4 25.3 27.0
2016-Nov-29 23:00N 20°24' W 074°12'2120.7 060 / 221012.8 5.4 25.3 27.0
2016-Nov-29 22:00N 20°36' W 074°30'1817.9 060 / 221012.8 5.4 25.3 27.0
2016-Nov-29 21:00N 20°42' W 074°48'2120.7 060 / 171012.8 5.4 25.3 27.0
2016-Nov-29 20:00N 20°54' W 075°06'1817.8 070 / 221012.8 5.4 25.3 27.0
2016-Nov-29 19:00N 21°00' W 075°24'2120.6 070 / 221012.910.8 25.7 27.0
2016-Nov-29 18:00N 21°12' W 075°42'1817.8 080 / 211013.310.8 25.8 27.0
2016-Nov-29 17:00N 21°18' W 076°00'2120.6 080 / 241014.310.8 25.8 27.0
2016-Nov-29 16:00N 21°30' W 076°18'4120.4 070 / 191014.910.8 25.8 27.0
2016-Nov-29 14:00N 21°42' W 077°00'4120.5 070 / 231015.0 25.8 27.0
2016-Nov-29 12:00N 22°12' W 077°30'2120.5 050 / 211014.1 23.8 27.0
2016-Nov-29 11:00N 22°24' W 077°48'1817.7 050 / 261014.1 23.8 27.0
2016-Nov-29 10:00N 22°30' W 078°06'2020.5 060 / 231014.1 23.8 27.0
2016-Nov-29 09:00N 22°42' W 078°24'3718.3 060 / 181014.1 23.8 27.0
2016-Nov-29 07:00N 23°06' W 078°54'2121.1 070 / 291014.1 23.8 27.0
2016-Nov-29 06:00N 23°24' W 079°06'1918.8 050 / 261014.6 24.0 27.0
2016-Nov-29 05:00N 23°42' W 079°12'9619.2 100 / 191015.1 24.0 28.0
2016-Nov-29 00:00N 25°12' W 079°48'1328.9 090 / 32
2016-Nov-28 23:33N 25°24' W 079°52'611.0
2016-Nov-28 23:00N 25°30' W 079°54'1023.9 070 / 35
2016-Nov-28 22:33N 25°40' W 079°57'1212.0
2016-Nov-28 21:33N 25°46' W 080°09'1 1.1
2016-Nov-28 20:32N 25°46' W 080°10'0 0.0
2016-Nov-28 19:32N 25°46' W 080°10'0 0.0
2016-Nov-28 18:32N 25°46' W 080°10'0 0.0
2016-Nov-28 17:32N 25°46' W 080°10'0 0.0
2016-Nov-28 16:32N 25°46' W 080°10'0 0.0
2016-Nov-28 15:32N 25°46' W 080°10'610.2
2016-Nov-28 15:00N 25°42' W 080°06'612.2 080 / 201017.410.8 22.7 28.0
2016-Nov-28 14:32N 25°46' W 080°10'610.2
2016-Nov-28 14:00N 25°42' W 080°06'612.2 080 / 161016.910.8 22.7 28.0
2016-Nov-28 13:32N 25°46' W 080°10'0 0.0
2016-Nov-28 12:32N 25°46' W 080°10'0 0.0
2016-Nov-28 11:33N 25°46' W 080°10'1 1.3
2016-Nov-28 10:33N 25°46' W 080°08'1111.0
2016-Nov-28 09:34N 25°43' W 079°57'1323.5
2016-Nov-28 09:00N 25°30' W 079°54'716.4 080 / 251015.110.8 22.7 28.0
2016-Nov-28 08:33N 25°23' W 079°55'1222.0
2016-Nov-28 08:00N 25°12' W 079°48'1918.8 090 / 291015.110.8 22.7 28.0
2016-Nov-28 07:00N 24°54' W 079°54'2121.0 080 / 221015.010.8 23.4 28.0
2016-Nov-28 06:00N 24°36' W 080°06'1616.2 100 / 301015.210.8 23.8 28.0
2016-Nov-28 05:00N 24°24' W 080°18'   070 / 231015.910.8 24.5 28.0

Dump ship's entire track history